createdAt,value
2017-11-08T00:01:05.041Z,7.32
2017-11-08T00:03:32.597Z,7.24
2017-11-08T00:06:00.083Z,7.22
2017-11-08T00:08:27.618Z,7.17
2017-11-08T00:10:55.119Z,7.13
2017-11-08T00:13:22.609Z,7.14
2017-11-08T00:15:51.935Z,7.14
2017-11-08T00:18:19.489Z,7.17
2017-11-08T00:20:46.982Z,7.15
2017-11-08T00:23:14.472Z,7.18
2017-11-08T00:25:42.001Z,7.17
2017-11-08T00:28:09.520Z,7.15
2017-11-08T00:30:37.017Z,7.16
2017-11-08T00:33:04.537Z,7.21
2017-11-08T00:35:32.017Z,7.30
2017-11-08T00:37:59.577Z,7.36
2017-11-08T00:40:27.119Z,7.38
2017-11-08T00:42:54.603Z,7.41
2017-11-08T00:45:22.097Z,7.36
2017-11-08T00:47:49.630Z,7.36
2017-11-08T00:50:17.124Z,7.40
2017-11-08T00:52:44.613Z,7.42
2017-11-08T00:55:12.153Z,7.41
2017-11-08T00:57:45.272Z,7.35
2017-11-08T01:00:15.304Z,7.19
2017-11-08T01:02:42.795Z,7.11
2017-11-08T01:05:10.285Z,7.07
2017-11-08T01:07:37.943Z,7.04
2017-11-08T01:10:05.435Z,7.02
2017-11-08T01:12:32.925Z,6.99
2017-11-08T01:15:00.464Z,6.93
2017-11-08T01:17:27.960Z,6.91
2017-11-08T01:19:55.452Z,6.89
2017-11-08T01:22:22.968Z,6.89
2017-11-08T01:24:50.461Z,6.86
2017-11-08T01:27:18.009Z,6.81
2017-11-08T01:29:45.507Z,6.78
2017-11-08T01:32:13.003Z,6.78
2017-11-08T01:34:40.531Z,6.78
2017-11-08T01:37:13.748Z,6.75
2017-11-08T01:39:41.263Z,6.71
2017-11-08T01:42:10.582Z,6.68
2017-11-08T01:44:43.848Z,6.68
2017-11-08T01:47:11.390Z,6.67
2017-11-08T01:49:38.888Z,6.64
2017-11-08T01:52:23.048Z,6.64
2017-11-08T01:54:50.532Z,6.64
2017-11-08T01:57:18.023Z,6.65
2017-11-08T01:59:45.547Z,6.63
2017-11-08T02:02:13.039Z,6.61
2017-11-08T02:04:40.583Z,6.58
2017-11-08T02:07:08.143Z,6.54
2017-11-08T02:09:35.637Z,6.51
2017-11-08T02:12:03.262Z,6.50
2017-11-08T02:14:30.753Z,6.51
2017-11-08T02:16:58.240Z,6.48
2017-11-08T02:19:25.785Z,6.46
2017-11-08T02:21:53.275Z,6.42
2017-11-08T02:24:20.767Z,6.38
2017-11-08T02:29:44.516Z,6.38
2017-11-08T02:32:14.990Z,6.36
2017-11-08T02:34:42.488Z,6.33
2017-11-08T02:37:09.992Z,6.31
2017-11-08T02:39:37.500Z,6.28
2017-11-08T02:42:05.727Z,6.28
2017-11-08T02:44:33.219Z,6.27
2017-11-08T02:47:00.856Z,6.27
2017-11-08T02:49:28.343Z,6.25
2017-11-08T02:51:55.856Z,6.24
2017-11-08T02:54:24.164Z,6.23
2017-11-08T02:56:51.683Z,6.21
2017-11-08T02:59:19.248Z,6.19
2017-11-08T03:01:46.800Z,6.21
2017-11-08T03:04:14.291Z,6.20
2017-11-08T03:06:41.788Z,6.22
2017-11-08T03:09:09.326Z,6.19
2017-11-08T03:11:36.817Z,6.14
2017-11-08T03:14:04.320Z,6.11
2017-11-08T03:16:31.836Z,6.12
2017-11-08T03:18:59.328Z,6.11
2017-11-08T03:21:26.817Z,6.11
2017-11-08T03:23:54.411Z,6.09
2017-11-08T03:26:21.907Z,6.12
2017-11-08T03:28:49.437Z,6.11
2017-11-08T03:31:16.929Z,6.08
2017-11-08T03:33:44.492Z,6.05
2017-11-08T03:36:12.149Z,6.04
2017-11-08T03:38:39.643Z,6.03
2017-11-08T03:41:07.166Z,6.03
2017-11-08T03:43:34.690Z,6.07
2017-11-08T03:46:02.261Z,6.10
2017-11-08T03:48:29.772Z,6.14
2017-11-08T03:50:57.264Z,6.18
2017-11-08T03:53:24.843Z,6.22
2017-11-08T03:55:52.340Z,6.28
2017-11-08T03:58:19.831Z,6.33
2017-11-08T04:00:47.355Z,6.46
2017-11-08T04:03:14.892Z,6.57
2017-11-08T04:05:42.391Z,6.64
2017-11-08T04:08:09.889Z,6.71
2017-11-08T04:10:37.438Z,6.75
2017-11-08T04:13:04.941Z,6.82
2017-11-08T04:15:32.431Z,6.86
2017-11-08T04:18:00.008Z,6.86
2017-11-08T04:20:27.496Z,6.87
2017-11-08T04:22:54.985Z,6.88
2017-11-08T04:25:22.561Z,6.87
2017-11-08T04:27:50.053Z,6.88
2017-11-08T04:30:17.549Z,6.92
2017-11-08T04:32:45.179Z,6.97
2017-11-08T04:35:12.664Z,6.99
2017-11-08T04:37:40.191Z,7.02
2017-11-08T04:40:07.855Z,7.07
2017-11-08T04:42:40.217Z,7.09
2017-11-08T04:45:07.740Z,7.13
2017-11-08T04:47:35.227Z,7.18
2017-11-08T04:50:02.804Z,7.20
2017-11-08T04:52:30.356Z,7.23
2017-11-08T04:54:57.852Z,7.20
2017-11-08T04:57:25.339Z,7.17
2017-11-08T04:59:52.860Z,7.15
2017-11-08T05:02:20.355Z,7.12
2017-11-08T05:04:47.851Z,7.13
2017-11-08T05:07:15.408Z,7.16
2017-11-08T05:09:42.901Z,7.21
2017-11-08T05:12:10.391Z,7.27
2017-11-08T05:14:37.930Z,7.28
2017-11-08T05:17:05.439Z,7.31
2017-11-08T05:19:32.932Z,7.31
2017-11-08T05:22:00.456Z,7.28
2017-11-08T05:24:28.015Z,7.25
2017-11-08T05:26:55.677Z,7.26
2017-11-08T05:29:23.176Z,7.24
2017-11-08T05:31:51.193Z,7.21
2017-11-08T05:34:18.872Z,7.15
2017-11-08T05:36:46.435Z,7.07
2017-11-08T05:39:13.984Z,7.02
2017-11-08T05:41:41.512Z,6.97
2017-11-08T05:44:09.108Z,6.92
2017-11-08T05:46:36.621Z,6.86
2017-11-08T05:49:04.268Z,6.82
2017-11-08T05:51:31.763Z,6.80
2017-11-08T05:53:59.251Z,6.78
2017-11-08T05:56:26.911Z,6.78
2017-11-08T05:58:54.411Z,6.81
2017-11-08T06:01:21.906Z,6.88
2017-11-08T06:03:49.479Z,6.93
2017-11-08T06:06:16.970Z,6.88
2017-11-08T06:08:44.467Z,6.82
2017-11-08T06:11:12.073Z,6.77
2017-11-08T06:13:39.608Z,6.71
2017-11-08T06:16:07.184Z,6.71
2017-11-08T06:18:34.832Z,6.70
2017-11-08T06:21:02.396Z,6.70
2017-11-08T06:23:29.891Z,6.67
2017-11-08T06:25:57.417Z,6.65
2017-11-08T06:28:24.912Z,6.64
2017-11-08T06:30:52.408Z,6.66
2017-11-08T06:33:20.011Z,6.65
2017-11-08T06:35:47.499Z,6.64
2017-11-08T06:38:15.023Z,6.68
2017-11-08T06:40:42.512Z,6.67
2017-11-08T06:43:10.013Z,6.64
2017-11-08T06:45:37.600Z,6.64
2017-11-08T06:48:05.092Z,6.63
2017-11-08T06:50:33.420Z,6.62
2017-11-08T06:53:01.797Z,6.60
2017-11-08T06:55:30.063Z,6.58
2017-11-08T06:57:57.625Z,6.58
2017-11-08T07:00:25.121Z,6.58
2017-11-08T07:02:52.607Z,6.58
2017-11-08T07:05:20.300Z,6.62
2017-11-08T07:07:47.792Z,6.63
2017-11-08T07:10:15.293Z,6.65
2017-11-08T07:12:42.836Z,6.70
2017-11-08T07:15:10.333Z,6.76
2017-11-08T07:17:37.828Z,6.79
2017-11-08T07:20:05.335Z,6.82
2017-11-08T07:22:32.920Z,6.83
2017-11-08T07:25:00.460Z,6.87
2017-11-08T07:27:28.032Z,6.84
2017-11-08T07:29:55.592Z,6.81
2017-11-08T07:32:23.272Z,6.84
2017-11-08T07:34:50.816Z,6.87
2017-11-08T07:37:18.314Z,6.87
2017-11-08T07:39:45.832Z,6.91
2017-11-08T07:42:13.354Z,6.93
2017-11-08T07:44:40.943Z,6.92
2017-11-08T07:47:08.431Z,6.98
2017-11-08T07:49:36.071Z,7.06
2017-11-08T07:52:10.286Z,7.09
2017-11-08T07:54:37.835Z,7.12
2017-11-08T07:57:05.328Z,7.20
2017-11-08T07:59:38.684Z,7.23
2017-11-08T08:02:06.260Z,7.30
2017-11-08T08:04:33.813Z,7.34
2017-11-08T08:07:01.328Z,7.42
2017-11-08T08:09:45.515Z,7.45
2017-11-08T08:12:13.032Z,7.43
2017-11-08T08:14:40.556Z,7.42
2017-11-08T08:17:08.044Z,7.43
2017-11-08T08:19:36.675Z,7.43
2017-11-08T08:22:04.167Z,7.45
2017-11-08T08:24:31.648Z,7.52
2017-11-08T08:27:04.764Z,7.55
2017-11-08T08:29:32.319Z,7.53
2017-11-08T08:31:59.808Z,7.60
2017-11-08T08:34:27.338Z,7.70
2017-11-08T08:36:54.833Z,7.82
2017-11-08T08:39:22.334Z,7.87
2017-11-08T08:41:49.864Z,7.88
2017-11-08T08:44:17.407Z,7.92
2017-11-08T08:46:44.905Z,7.87
2017-11-08T08:49:12.643Z,7.85
2017-11-08T08:51:40.132Z,7.82
2017-11-08T08:54:07.633Z,7.84
2017-11-08T08:56:35.180Z,7.86
2017-11-08T08:59:02.681Z,7.81
2017-11-08T09:01:30.172Z,7.67
2017-11-08T09:03:57.732Z,7.56
2017-11-08T09:06:25.328Z,7.59
2017-11-08T09:08:52.820Z,7.61
2017-11-08T09:11:20.343Z,7.58
2017-11-08T09:13:47.895Z,7.53
2017-11-08T09:16:15.396Z,7.62
2017-11-08T09:18:42.911Z,7.59
2017-11-08T09:21:10.405Z,7.59
2017-11-08T09:23:38.847Z,7.73
2017-11-08T09:26:06.336Z,7.99
2017-11-08T09:28:33.825Z,8.10
2017-11-08T09:31:01.427Z,8.11
2017-11-08T09:33:29.079Z,8.21
2017-11-08T09:35:56.568Z,8.37
2017-11-08T09:38:24.105Z,8.49
2017-11-08T09:40:51.609Z,8.49
2017-11-08T09:43:21.919Z,8.58
2017-11-08T09:45:49.435Z,8.71
2017-11-08T09:48:16.947Z,8.71
2017-11-08T09:50:44.484Z,8.74
2017-11-08T09:53:12.023Z,8.71
2017-11-08T09:55:39.529Z,8.65
2017-11-08T09:58:08.933Z,8.69
2017-11-08T10:00:36.469Z,8.72
2017-11-08T10:03:03.958Z,8.63
2017-11-08T10:05:31.452Z,8.62
2017-11-08T10:07:58.984Z,8.58
2017-11-08T10:10:30.305Z,8.50
2017-11-08T10:13:03.426Z,8.57
2017-11-08T10:15:30.917Z,8.43
2017-11-08T10:17:58.415Z,8.45
2017-11-08T10:20:25.996Z,8.56
2017-11-08T10:22:53.481Z,8.65
2017-11-08T10:25:20.968Z,8.73
2017-11-08T10:27:48.503Z,8.84
2017-11-08T10:30:16.083Z,8.91
2017-11-08T10:32:43.572Z,8.71
2017-11-08T10:35:11.075Z,8.52
2017-11-08T10:37:38.635Z,8.69
2017-11-08T10:40:06.124Z,8.89
2017-11-08T10:42:33.586Z,9.05
2017-11-08T10:45:01.121Z,9.00
2017-11-08T10:47:28.616Z,9.20
2017-11-08T10:49:56.117Z,9.23
2017-11-08T10:52:23.644Z,8.98
2017-11-08T10:54:51.134Z,8.76
2017-11-08T10:57:18.675Z,8.69
2017-11-08T10:59:51.224Z,8.72
2017-11-08T11:02:19.423Z,8.90
2017-11-08T11:04:47.710Z,9.14
2017-11-08T11:07:15.250Z,9.16
2017-11-08T11:09:42.741Z,9.13
2017-11-08T11:12:10.240Z,9.17
2017-11-08T11:14:37.765Z,9.20
2017-11-08T11:17:05.257Z,9.17
2017-11-08T11:19:32.852Z,9.05
2017-11-08T11:22:02.143Z,9.10
2017-11-08T11:24:33.532Z,9.18
2017-11-08T11:27:07.413Z,9.32
2017-11-08T11:29:34.903Z,9.37
2017-11-08T11:32:02.528Z,9.49
2017-11-08T11:34:30.028Z,9.53
2017-11-08T11:36:57.523Z,9.51
2017-11-08T11:39:25.112Z,9.25
2017-11-08T11:41:52.601Z,9.10
2017-11-08T11:44:20.171Z,9.02
2017-11-08T11:46:47.828Z,8.95
2017-11-08T11:49:15.318Z,8.98
2017-11-08T11:51:42.910Z,8.94
2017-11-08T11:54:10.469Z,8.93
2017-11-08T12:12:29.585Z,9.05
2017-11-08T12:14:57.082Z,9.04
2017-11-08T12:17:24.578Z,8.99
2017-11-08T12:19:52.319Z,9.06
2017-11-08T12:22:19.816Z,9.09
2017-11-08T12:24:47.316Z,9.19
2017-11-08T12:27:14.836Z,9.24
2017-11-08T12:29:42.325Z,9.27
2017-11-08T12:32:09.904Z,9.34
2017-11-08T12:34:39.416Z,9.20
2017-11-08T12:37:06.973Z,9.31
2017-11-08T12:39:34.466Z,9.45
2017-11-08T12:42:03.920Z,9.54
2017-11-08T12:47:34.789Z,9.25
2017-11-08T12:50:02.292Z,9.12
2017-11-08T12:52:29.789Z,9.19
2017-11-08T12:54:57.340Z,9.31
2017-11-08T12:57:24.832Z,9.34
2017-11-08T12:59:52.323Z,9.17
2017-11-08T13:02:20.046Z,8.98
2017-11-08T13:04:47.543Z,9.05
2017-11-08T13:07:15.028Z,9.27
2017-11-08T13:09:42.563Z,9.26
2017-11-08T13:12:10.061Z,9.26
2017-11-08T13:14:37.560Z,9.32
2017-11-08T13:17:05.081Z,9.18
2017-11-08T13:19:32.560Z,9.12
2017-11-08T13:22:00.116Z,9.15
2017-11-08T13:24:27.649Z,9.18
2017-11-08T13:26:55.136Z,9.12
2017-11-08T13:29:22.629Z,8.93
2017-11-08T13:31:50.164Z,8.88
2017-11-08T13:34:17.653Z,8.88
2017-11-08T13:36:45.368Z,8.86
2017-11-08T13:39:12.857Z,8.86
2017-11-08T13:41:40.386Z,8.82
2017-11-08T13:44:07.900Z,8.93
2017-11-08T13:46:35.504Z,9.05
2017-11-08T13:49:03.038Z,9.04
2017-11-08T13:51:30.534Z,9.00
2017-11-08T13:53:58.079Z,8.99
2017-11-08T13:56:25.630Z,9.06
2017-11-08T13:58:53.127Z,9.07
2017-11-08T14:01:20.633Z,9.10
2017-11-08T14:03:48.181Z,9.07
2017-11-08T14:06:15.677Z,8.84
2017-11-08T14:08:43.168Z,8.67
2017-11-08T14:11:10.891Z,8.60
2017-11-08T14:13:38.471Z,8.60
2017-11-08T14:16:05.966Z,8.62
2017-11-08T14:18:33.501Z,8.53
2017-11-08T14:21:00.992Z,8.43
2017-11-08T14:23:28.481Z,8.37
2017-11-08T14:25:55.996Z,8.36
2017-11-08T14:28:23.487Z,8.42
2017-11-08T14:30:50.983Z,8.38
2017-11-08T14:33:18.626Z,8.30
2017-11-08T14:35:46.116Z,8.32
2017-11-08T14:38:13.608Z,8.40
2017-11-08T14:40:41.132Z,8.40
2017-11-08T14:43:08.621Z,8.37
2017-11-08T14:45:36.121Z,8.36
2017-11-08T14:48:03.661Z,8.37
2017-11-08T14:50:31.149Z,8.42
2017-11-08T14:53:04.220Z,8.31
2017-11-08T14:55:31.719Z,8.24
2017-11-08T14:57:59.242Z,8.17
2017-11-08T15:00:26.777Z,8.13
2017-11-08T15:02:54.348Z,8.17
2017-11-08T15:05:21.914Z,8.20
2017-11-08T15:07:49.472Z,8.27
2017-11-08T15:10:16.972Z,8.24
2017-11-08T15:12:45.265Z,8.18
2017-11-08T15:15:15.577Z,8.05
2017-11-08T15:17:44.931Z,8.09
2017-11-08T15:20:18.154Z,8.13
2017-11-08T15:22:45.645Z,8.15
2017-11-08T15:25:13.147Z,8.18
2017-11-08T15:27:40.801Z,8.13
2017-11-08T15:30:08.298Z,8.06
2017-11-08T15:32:36.704Z,8.11
2017-11-08T15:35:04.347Z,8.13
2017-11-08T15:37:31.836Z,8.18
2017-11-08T15:39:59.325Z,8.19
2017-11-08T15:42:26.852Z,8.22
2017-11-08T15:44:54.341Z,8.19
2017-11-08T15:47:21.834Z,8.18
2017-11-08T15:49:49.377Z,8.16
2017-11-08T15:52:16.870Z,8.10
2017-11-08T15:54:44.363Z,8.11
2017-11-08T15:57:11.888Z,8.14
2017-11-08T15:59:39.378Z,8.09
2017-11-08T16:02:06.880Z,8.07
2017-11-08T16:04:34.411Z,8.11
2017-11-08T16:07:01.956Z,8.08
2017-11-08T16:09:29.521Z,8.05
2017-11-08T16:11:57.056Z,7.97
2017-11-08T16:14:24.546Z,7.96
2017-11-08T16:16:52.045Z,7.98
2017-11-08T16:19:19.585Z,7.98
2017-11-08T16:21:47.127Z,7.99
2017-11-08T16:24:16.425Z,7.95
2017-11-08T16:26:43.954Z,7.85
2017-11-08T16:29:11.547Z,7.84
2017-11-08T16:31:39.074Z,7.92
2017-11-08T16:34:06.565Z,7.98
2017-11-08T16:36:34.052Z,8.01
2017-11-08T16:39:01.659Z,8.00
2017-11-08T16:41:29.148Z,8.00
2017-11-08T16:43:56.648Z,8.00
2017-11-08T16:46:24.285Z,7.91
2017-11-08T16:48:51.798Z,7.79
2017-11-08T16:51:19.284Z,7.79
2017-11-08T16:53:46.815Z,7.82
2017-11-08T16:56:14.310Z,7.85
2017-11-08T16:58:41.846Z,7.84
2017-11-08T17:01:09.333Z,7.82
2017-11-08T17:03:36.830Z,7.83
2017-11-08T17:06:04.358Z,7.78
2017-11-08T17:08:31.849Z,7.76
2017-11-08T17:10:59.341Z,7.76
2017-11-08T17:13:26.861Z,7.66
2017-11-08T17:15:54.356Z,7.65
2017-11-08T17:18:21.844Z,7.72
2017-11-08T17:20:49.366Z,7.75
2017-11-08T17:23:16.913Z,7.76
2017-11-08T17:25:44.404Z,7.78
2017-11-08T17:28:11.963Z,7.76
2017-11-08T17:30:39.481Z,7.71
2017-11-08T17:33:06.973Z,7.75
2017-11-08T17:35:34.493Z,7.74
2017-11-08T17:38:01.992Z,7.67
2017-11-08T17:40:29.484Z,7.66
2017-11-08T17:42:57.073Z,7.66
2017-11-08T17:45:24.646Z,7.66
2017-11-08T17:47:52.136Z,7.69
2017-11-08T17:50:19.753Z,7.71
2017-11-08T17:52:47.255Z,7.72
2017-11-08T17:55:14.744Z,7.70
2017-11-08T17:57:42.273Z,7.67
2017-11-08T18:00:09.760Z,7.67
2017-11-08T18:02:37.349Z,7.76
2017-11-08T18:05:04.873Z,7.90
2017-11-08T18:07:32.374Z,7.86
2017-11-08T18:09:59.868Z,7.81
2017-11-08T18:12:27.477Z,7.69
2017-11-08T18:14:54.972Z,7.62
2017-11-08T18:17:22.515Z,7.57
2017-11-08T18:19:50.007Z,7.48
2017-11-08T18:22:17.610Z,7.54
2017-11-08T18:24:45.159Z,7.55
2017-11-08T18:27:12.736Z,7.58
2017-11-08T18:29:40.224Z,7.59
2017-11-08T18:32:07.924Z,7.55
2017-11-08T18:34:35.419Z,7.42
2017-11-08T18:37:02.990Z,7.35
2017-11-08T18:39:30.500Z,7.42
2017-11-08T18:41:58.102Z,7.43
2017-11-08T18:44:25.600Z,7.48
2017-11-08T18:46:53.092Z,7.44
2017-11-08T18:49:20.627Z,7.45
2017-11-08T18:51:48.229Z,7.47
2017-11-08T18:54:15.722Z,7.42
2017-11-08T18:56:43.266Z,7.41
2017-11-08T18:59:10.766Z,7.34
2017-11-08T19:01:38.333Z,7.37
2017-11-08T19:04:05.862Z,7.34
2017-11-08T19:06:33.410Z,7.33
2017-11-08T19:09:00.941Z,7.34
2017-11-08T19:11:28.514Z,7.25
2017-11-08T19:13:56.034Z,7.28
2017-11-08T19:16:23.528Z,7.28
2017-11-08T19:18:51.076Z,7.29
2017-11-08T19:21:18.595Z,7.33
2017-11-08T19:23:46.126Z,7.34
2017-11-08T19:26:13.624Z,7.34
2017-11-08T19:28:41.124Z,7.35
2017-11-08T19:31:08.669Z,7.40
2017-11-08T19:33:36.169Z,7.42
2017-11-08T19:36:03.671Z,7.38
2017-11-08T19:38:31.198Z,7.38
2017-11-08T19:40:58.693Z,7.43
2017-11-08T19:43:26.271Z,7.40
2017-11-08T19:45:53.806Z,7.38
2017-11-08T19:48:21.378Z,7.28
2017-11-08T19:50:48.869Z,7.24
2017-11-08T19:53:16.485Z,7.21
2017-11-08T19:55:43.993Z,7.15
2017-11-08T19:58:11.518Z,7.21
2017-11-08T20:00:39.140Z,7.27
2017-11-08T20:03:06.737Z,7.27
2017-11-08T20:05:34.336Z,7.28
2017-11-08T20:08:01.909Z,7.22
2017-11-08T20:10:29.435Z,7.13
2017-11-08T20:12:56.938Z,7.13
2017-11-08T20:15:24.485Z,7.03
2017-11-08T20:17:52.104Z,6.97
2017-11-08T20:20:19.662Z,6.97
2017-11-08T20:22:47.181Z,7.08
2017-11-08T20:25:14.712Z,7.17
2017-11-08T20:27:42.201Z,7.10
2017-11-08T20:30:09.751Z,7.02
2017-11-08T20:32:37.394Z,6.95
2017-11-08T20:35:04.882Z,6.91
2017-11-08T20:37:32.394Z,6.93
2017-11-08T20:39:59.915Z,6.98
2017-11-08T20:42:27.409Z,6.89
2017-11-08T20:44:54.935Z,6.80
2017-11-08T20:47:22.473Z,6.76
2017-11-08T20:49:49.972Z,6.82
2017-11-08T20:52:17.513Z,6.81
2017-11-08T20:54:45.085Z,6.81
2017-11-08T20:57:12.577Z,6.86
2017-11-08T20:59:40.077Z,6.85
2017-11-08T21:02:07.589Z,6.88
2017-11-08T21:04:35.076Z,6.93
2017-11-08T21:07:02.602Z,7.00
2017-11-08T21:09:30.115Z,7.00
2017-11-08T21:11:57.654Z,6.90
2017-11-08T21:14:25.147Z,6.83
2017-11-08T21:16:52.655Z,6.78
2017-11-08T21:19:20.369Z,6.79
2017-11-08T21:21:47.873Z,6.73
2017-11-08T21:24:15.367Z,6.76
2017-11-08T21:26:42.945Z,6.76
2017-11-08T21:29:10.481Z,6.68
2017-11-08T21:31:38.054Z,6.64
2017-11-08T21:34:05.545Z,6.64
2017-11-08T21:36:33.167Z,6.62
2017-11-08T21:39:00.655Z,6.66
2017-11-08T21:41:28.147Z,6.73
2017-11-08T21:43:55.677Z,6.74
2017-11-08T21:46:23.205Z,6.72
2017-11-08T21:48:51.152Z,6.70
2017-11-08T21:51:18.669Z,6.75
2017-11-08T21:53:46.223Z,6.73
2017-11-08T21:56:13.724Z,6.67
2017-11-08T21:58:41.215Z,6.57
2017-11-08T22:01:08.734Z,6.50
2017-11-08T22:03:36.227Z,6.48
2017-11-08T22:06:03.783Z,6.56
2017-11-08T22:08:31.341Z,6.56
2017-11-08T22:10:58.835Z,6.56
2017-11-08T22:13:26.367Z,6.56
2017-11-08T22:15:53.853Z,6.48
2017-11-08T22:18:21.340Z,6.40
2017-11-08T22:20:49.742Z,6.43
2017-11-08T22:23:17.241Z,6.52
2017-11-08T22:25:44.778Z,6.63
2017-11-08T22:28:12.417Z,6.66
2017-11-08T22:30:39.911Z,6.58
2017-11-08T22:33:07.467Z,6.58
2017-11-08T22:35:35.084Z,6.51
2017-11-08T22:38:02.576Z,6.48
2017-11-08T22:40:30.069Z,6.40
2017-11-08T22:42:57.613Z,6.43
2017-11-08T22:45:25.105Z,6.50
2017-11-08T22:47:52.591Z,6.58
2017-11-08T22:50:20.137Z,6.60
2017-11-08T22:52:47.709Z,6.61
2017-11-08T22:55:15.270Z,6.57
2017-11-08T22:57:42.798Z,6.51
2017-11-08T23:00:10.302Z,6.56
2017-11-08T23:02:37.794Z,6.50
2017-11-08T23:05:05.416Z,6.39
2017-11-08T23:07:32.969Z,6.31
2017-11-08T23:10:00.453Z,6.38
2017-11-08T23:12:27.995Z,6.44
2017-11-08T23:14:55.533Z,6.49
2017-11-08T23:17:23.033Z,6.53
2017-11-08T23:19:50.757Z,6.50
2017-11-08T23:22:18.251Z,6.54
2017-11-08T23:24:45.746Z,6.62
2017-11-08T23:27:13.272Z,6.58
2017-11-08T23:29:40.761Z,6.52
2017-11-08T23:32:08.257Z,6.50
2017-11-08T23:34:35.804Z,6.51
2017-11-08T23:37:03.369Z,6.57
2017-11-08T23:39:30.926Z,6.59
2017-11-08T23:41:58.445Z,6.53
2017-11-08T23:44:26.045Z,6.49
2017-11-08T23:46:53.540Z,6.51
2017-11-08T23:49:21.073Z,6.51
2017-11-08T23:51:48.613Z,6.51
2017-11-08T23:54:16.176Z,6.54
2017-11-08T23:56:43.721Z,6.48
2017-11-08T23:59:16.833Z,6.45
